Time;durP1;ratioP1;P1;durP2;ratioP2;P2;SDS_P1;SDS_P2;PMS_P1;PMS_P2;Temp;Humidity;BMP_temperature;BMP_pressure;BME280_temperature;BME280_humidity;BME280_pressure;Samples;Min_cycle;Max_cycle;Signal;HPM_P1;HPM_P2
2023/06/26 00:00:32;;;;;;;6.13;4.40;;;28.10;91.10;;;;;;5046771;28;20642;-30
2023/06/26 00:03:02;;;;;;;5.97;4.40;;;28.10;91.10;;;;;;5044670;28;20196;-30
2023/06/26 00:05:32;;;;;;;5.88;4.13;;;28.10;91.10;;;;;;5045638;28;20210;-30
2023/06/26 00:08:00;;;;;;;6.28;4.70;;;28.00;91.00;;;;;;5045955;28;20199;-31
2023/06/26 00:10:27;;;;;;;5.25;4.28;;;28.00;91.00;;;;;;5045936;28;20212;-30
2023/06/26 00:13:00;;;;;;;6.47;4.93;;;28.00;91.00;;;;;;5078137;28;20643;-31
2023/06/26 00:15:32;;;;;;;4.68;4.25;;;27.90;91.00;;;;;;5046253;28;20199;-30
2023/06/26 00:17:59;;;;;;;6.63;4.03;;;27.90;91.00;;;;;;5043738;28;20227;-31
2023/06/26 00:20:26;;;;;;;4.93;3.83;;;27.90;91.10;;;;;;5046017;28;20583;-30
2023/06/26 00:22:59;;;;;;;5.03;3.80;;;27.80;91.00;;;;;;5045671;28;20231;-30
2023/06/26 00:25:26;;;;;;;4.43;3.58;;;27.80;91.00;;;;;;5044192;28;20218;-30
2023/06/26 00:27:53;;;;;;;4.35;3.63;;;27.70;91.00;;;;;;5077214;28;20296;-30
2023/06/26 00:30:25;;;;;;;5.18;3.83;;;27.70;90.90;;;;;;5044180;28;20200;-30
2023/06/26 00:32:54;;;;;;;4.90;3.97;;;27.70;91.00;;;;;;5077026;28;20203;-30
2023/06/26 00:35:22;;;;;;;3.95;3.58;;;27.60;91.00;;;;;;5045843;28;20208;-31
2023/06/26 00:37:49;;;;;;;4.05;3.60;;;27.60;91.00;;;;;;5045869;28;20239;-31
2023/06/26 00:40:16;;;;;;;5.47;3.83;;;27.60;91.00;;;;;;5043950;28;20297;-30
2023/06/26 00:42:46;;;;;;;4.05;3.65;;;27.50;91.10;;;;;;5045472;28;20192;-30
2023/06/26 00:45:20;;;;;;;4.53;4.07;;;27.50;91.20;;;;;;5045799;28;20653;-30
2023/06/26 00:48:05;;;;;;;5.07;4.07;;;27.50;91.20;;;;;;5045588;28;20266;-31
2023/06/26 00:50:35;;;;;;;4.82;4.22;;;27.40;91.10;;;;;;5076715;28;20207;-30
2023/06/26 00:53:03;;;;;;;5.72;4.05;;;27.40;91.20;;;;;;5077128;28;20204;-30
2023/06/26 00:55:30;;;;;;;5.93;4.40;;;27.40;91.20;;;;;;5076977;28;20202;-30
2023/06/26 00:58:00;;;;;;;5.20;4.30;;;27.40;91.60;;;;;;5045155;28;20302;-30
2023/06/26 01:00:28;;;;;;;4.85;4.05;;;27.30;91.30;;;;;;5060214;28;20208;-30
2023/06/26 01:03:00;;;;;;;4.90;4.32;;;27.30;91.40;;;;;;5076534;28;20220;-30
2023/06/26 01:05:31;;;;;;;4.68;4.10;;;27.20;91.50;;;;;;5073996;28;20682;-31
2023/06/26 01:07:58;;;;;;;5.85;4.07;;;27.10;91.40;;;;;;5045150;28;20636;-30
2023/06/26 01:10:29;;;;;;;4.63;3.90;;;27.10;91.40;;;;;;5043326;28;20204;-31
2023/06/26 01:12:59;;;;;;;4.13;3.65;;;27.00;91.20;;;;;;5076292;28;20566;-30
2023/06/26 01:15:26;;;;;;;5.20;3.85;;;27.00;91.20;;;;;;5045421;28;20545;-31
2023/06/26 01:17:55;;;;;;;4.47;3.80;;;26.90;91.20;;;;;;5043140;28;20596;-30
2023/06/26 01:20:22;;;;;;;5.20;3.65;;;26.90;91.10;;;;;;5043267;28;20201;-30
2023/06/26 01:22:59;;;;;;;4.95;3.58;;;26.80;91.00;;;;;;5044458;28;21017;-30
2023/06/26 01:25:40;;;;;;;4.28;3.40;;;26.70;91.00;;;;;;5043355;28;20211;-30
2023/06/26 01:28:11;;;;;;;4.43;3.63;;;26.70;91.20;;;;;;5045013;28;20203;-30
2023/06/26 01:30:44;;;;;;;4.45;3.40;;;26.60;91.00;;;;;;5045085;28;20246;-27
2023/06/26 01:33:16;;;;;;;4.15;3.22;;;26.50;91.00;;;;;;5044993;28;20662;-27
2023/06/26 01:35:46;;;;;;;5.00;3.47;;;26.50;91.50;;;;;;5059175;28;20201;-27
2023/06/26 01:38:16;;;;;;;6.28;3.88;;;26.40;91.10;;;;;;5044536;28;20281;-27
2023/06/26 01:40:46;;;;;;;3.67;3.28;;;26.30;91.00;;;;;;5044878;28;20200;-27
2023/06/26 01:43:26;;;;;;;3.83;3.40;;;26.30;91.00;;;;;;5044677;28;20203;-27
2023/06/26 01:46:17;;;;;;;4.38;3.53;;;26.20;91.10;;;;;;5042997;28;20208;-27
2023/06/26 01:49:05;;;;;;;4.18;3.25;;;26.20;91.00;;;;;;5043388;28;20206;-30
2023/06/26 01:51:41;;;;;;;4.90;3.05;;;26.20;91.20;;;;;;5042396;28;20211;-30
2023/06/26 01:54:21;;;;;;;5.05;3.38;;;26.10;91.00;;;;;;5044388;28;20227;-30
2023/06/26 01:56:54;;;;;;;4.38;3.10;;;26.10;91.10;;;;;;5044423;28;20219;-30
2023/06/26 01:59:28;;;;;;;4.40;3.00;;;26.00;90.90;;;;;;5044600;28;20231;-31
2023/06/26 02:01:56;;;;;;;8.27;3.20;;;26.00;91.00;;;;;;5042161;28;20246;-30
2023/06/26 02:04:23;;;;;;;4.22;3.15;;;25.90;90.90;;;;;;5044289;28;20277;-30
2023/06/26 02:06:55;;;;;;;5.20;3.20;;;25.90;91.00;;;;;;5044137;28;20227;-30
2023/06/26 02:09:28;;;;;;;3.92;2.67;;;25.90;91.00;;;;;;5044119;28;20212;-30
2023/06/26 02:12:00;;;;;;;6.43;3.28;;;25.90;91.00;;;;;;5044145;28;20324;-27
2023/06/26 02:14:27;;;;;;;3.30;2.67;;;25.80;91.00;;;;;;5042325;28;20291;-27
2023/06/26 02:16:54;;;;;;;3.25;2.72;;;25.80;91.10;;;;;;5041838;28;20227;-27
2023/06/26 02:19:24;;;;;;;4.43;3.00;;;25.70;91.10;;;;;;5043983;28;20192;-27
2023/06/26 02:21:52;;;;;;;3.60;2.88;;;25.70;91.10;;;;;;5043608;28;20192;-27
2023/06/26 02:24:21;;;;;;;3.60;2.90;;;25.70;91.10;;;;;;5043830;28;20563;-27
2023/06/26 02:26:49;;;;;;;6.13;2.60;;;25.60;91.10;;;;;;5043434;28;20204;-27
2023/06/26 02:29:18;;;;;;;5.85;3.00;;;25.60;91.30;;;;;;5041906;28;20227;-26
2023/06/26 02:31:48;;;;;;;3.40;3.00;;;25.60;91.20;;;;;;5042007;28;20209;-27
2023/06/26 02:34:18;;;;;;;3.72;2.80;;;25.60;91.20;;;;;;5042259;28;20217;-27
2023/06/26 02:36:45;;;;;;;4.10;2.85;;;25.50;91.20;;;;;;5058039;28;20329;-26
2023/06/26 02:39:13;;;;;;;4.32;3.10;;;25.50;91.30;;;;;;5042089;28;20208;-27
2023/06/26 02:41:41;;;;;;;5.80;3.25;;;25.40;91.30;;;;;;5043190;28;20192;-27
2023/06/26 02:44:14;;;;;;;4.13;2.78;;;25.40;91.40;;;;;;5043641;28;20210;-27
2023/06/26 02:46:41;;;;;;;4.10;2.60;;;25.30;91.40;;;;;;5043279;28;20235;-27
2023/06/26 02:49:08;;;;;;;5.00;2.92;;;25.30;91.50;;;;;;5058044;28;20254;-26
2023/06/26 02:51:43;;;;;;;4.65;2.90;;;25.30;91.50;;;;;;5041308;28;20568;-27
2023/06/26 02:54:12;;;;;;;4.63;2.72;;;25.30;91.60;;;;;;5043244;28;20215;-30
2023/06/26 02:56:39;;;;;;;4.03;2.65;;;25.30;91.60;;;;;;5042755;28;20968;-30
2023/06/26 02:59:14;;;;;;;7.03;3.30;;;25.20;91.60;;;;;;5041409;28;20291;-31
2023/06/26 03:01:46;;;;;;;4.85;2.83;;;25.20;91.70;;;;;;5041245;28;20525;-31
2023/06/26 03:04:21;;;;;;;7.70;3.03;;;25.10;91.80;;;;;;5043584;28;20200;-30
2023/06/26 03:06:51;;;;;;;4.07;2.92;;;25.10;91.80;;;;;;5042869;28;20203;-30
2023/06/26 03:09:20;;;;;;;6.90;3.42;;;25.10;91.90;;;;;;5042914;28;20641;-31
2023/06/26 03:11:50;;;;;;;4.35;3.08;;;25.10;91.90;;;;;;5042465;28;20453;-30
2023/06/26 03:14:20;;;;;;;6.10;3.25;;;25.00;91.90;;;;;;5041261;28;20254;-30
2023/06/26 03:16:47;;;;;;;6.07;2.90;;;25.00;91.90;;;;;;5040892;28;20303;-30
2023/06/26 03:19:17;;;;;;;5.65;2.90;;;25.00;92.20;;;;;;5043069;28;20215;-31
2023/06/26 03:21:44;;;;;;;5.95;2.85;;;25.00;92.00;;;;;;5040995;28;20200;-30
2023/06/26 03:24:17;;;;;;;6.68;3.40;;;25.00;92.00;;;;;;5073601;28;20196;-31
2023/06/26 03:26:44;;;;;;;5.03;2.70;;;25.00;92.10;;;;;;5041088;28;20200;-30
2023/06/26 03:29:11;;;;;;;5.75;3.00;;;25.00;92.20;;;;;;5042067;28;20296;-30
2023/06/26 03:31:39;;;;;;;5.55;3.35;;;24.90;92.30;;;;;;5042625;28;20581;-30
2023/06/26 03:34:06;;;;;;;5.15;2.65;;;24.90;92.30;;;;;;5041049;28;20193;-30
2023/06/26 03:36:36;;;;;;;6.50;2.72;;;24.90;92.30;;;;;;5040924;28;20205;-30
2023/06/26 03:39:05;;;;;;;6.32;3.10;;;24.90;92.30;;;;;;5041176;28;20204;-30
2023/06/26 03:41:35;;;;;;;6.90;3.00;;;24.90;92.50;;;;;;5040474;28;20245;-31
2023/06/26 03:44:03;;;;;;;7.00;3.50;;;24.80;92.50;;;;;;5040816;28;20262;-31
2023/06/26 03:46:30;;;;;;;5.72;3.10;;;24.80;92.50;;;;;;5042580;28;20212;-30
2023/06/26 03:48:59;;;;;;;7.43;3.40;;;24.70;92.60;;;;;;5042510;28;20241;-30
2023/06/26 03:51:26;;;;;;;6.60;3.13;;;24.70;92.50;;;;;;5040543;28;20232;-31
2023/06/26 03:53:53;;;;;;;8.57;3.47;;;24.70;92.60;;;;;;5040626;28;20295;-30
2023/06/26 03:56:28;;;;;;;6.50;3.08;;;24.60;92.60;;;;;;5040857;28;20694;-31
2023/06/26 03:58:56;;;;;;;5.95;3.72;;;24.60;92.70;;;;;;5042416;28;20721;-31
2023/06/26 04:01:23;;;;;;;6.40;3.17;;;24.60;92.80;;;;;;5040316;28;20231;-30
2023/06/26 04:03:50;;;;;;;7.07;3.15;;;24.50;93.00;;;;;;5040712;28;20200;-30
2023/06/26 04:06:20;;;;;;;6.95;3.00;;;24.50;92.70;;;;;;5073552;28;20472;-31
2023/06/26 04:08:47;;;;;;;10.00;3.60;;;24.40;92.70;;;;;;5042343;28;20212;-30
2023/06/26 04:11:15;;;;;;;6.35;3.22;;;24.40;92.80;;;;;;5040349;28;20238;-31
2023/06/26 04:13:42;;;;;;;6.63;3.25;;;24.30;92.70;;;;;;5042430;28;20226;-26
2023/06/26 04:16:11;;;;;;;9.45;3.83;;;24.30;92.70;;;;;;5042175;28;20571;-30
2023/06/26 04:18:39;;;;;;;8.13;3.28;;;24.30;92.80;;;;;;5042188;28;20662;-26
2023/06/26 04:21:11;;;;;;;10.68;3.20;;;24.20;92.70;;;;;;5042342;28;20204;-26
2023/06/26 04:23:41;;;;;;;7.35;3.33;;;24.20;92.80;;;;;;5042146;28;20254;-26
2023/06/26 04:26:14;;;;;;;6.25;3.08;;;24.20;92.90;;;;;;5040693;28;20588;-26
2023/06/26 04:28:43;;;;;;;7.80;3.33;;;24.20;92.90;;;;;;5042561;28;20199;-27
2023/06/26 04:31:13;;;;;;;6.75;2.97;;;24.10;93.30;;;;;;5073723;28;20300;-26
2023/06/26 04:33:43;;;;;;;9.05;3.67;;;24.10;92.90;;;;;;5042038;28;20701;-27
2023/06/26 04:36:11;;;;;;;8.60;3.17;;;24.10;92.90;;;;;;5040025;28;20216;-27
2023/06/26 04:38:38;;;;;;;10.32;3.28;;;24.10;93.00;;;;;;5042022;28;20259;-27
2023/06/26 04:41:05;;;;;;;10.15;3.10;;;24.10;93.00;;;;;;5044245;28;20218;-26
2023/06/26 04:43:33;;;;;;;8.57;2.97;;;24.10;93.00;;;;;;5043960;28;20196;-26
2023/06/26 04:46:05;;;;;;;11.38;3.65;;;24.00;92.90;;;;;;5043843;28;20231;-26
2023/06/26 04:48:35;;;;;;;8.77;3.60;;;24.00;93.00;;;;;;5077246;28;20205;-26
2023/06/26 04:51:02;;;;;;;11.23;3.60;;;24.00;93.20;;;;;;5046052;28;20574;-26
2023/06/26 04:53:29;;;;;;;10.63;3.30;;;23.90;93.10;;;;;;5060470;28;20497;-26
2023/06/26 04:55:56;;;;;;;8.95;3.45;;;23.90;93.00;;;;;;5045565;28;20713;-26
2023/06/26 04:58:24;;;;;;;9.15;3.65;;;23.90;93.10;;;;;;5043348;28;20220;-26
2023/06/26 05:00:58;;;;;;;12.82;4.10;;;23.90;93.10;;;;;;5043800;28;20211;-26
2023/06/26 05:03:28;;;;;;;6.68;3.15;;;23.90;93.30;;;;;;5045204;28;20191;-26
2023/06/26 05:05:58;;;;;;;8.20;3.55;;;23.90;93.10;;;;;;5045159;28;20593;-27
2023/06/26 05:08:29;;;;;;;9.98;3.13;;;23.90;93.20;;;;;;5043449;28;20716;-26
2023/06/26 05:10:58;;;;;;;8.52;2.83;;;23.80;93.40;;;;;;5075540;28;20249;-26
2023/06/26 05:13:26;;;;;;;9.57;3.22;;;23.70;93.20;;;;;;5044920;28;20282;-26
2023/06/26 05:15:53;;;;;;;7.72;3.17;;;23.70;93.10;;;;;;5043754;28;20204;-26
2023/06/26 05:18:22;;;;;;;8.85;3.15;;;23.70;93.10;;;;;;5044751;28;20618;-26
2023/06/26 05:20:52;;;;;;;10.13;3.42;;;23.70;93.10;;;;;;5076467;28;20287;-26
2023/06/26 05:23:21;;;;;;;9.63;3.25;;;23.70;93.20;;;;;;5044722;28;20243;-26
2023/06/26 05:25:53;;;;;;;5.75;2.92;;;23.60;93.00;;;;;;5044727;28;20310;-26
2023/06/26 05:28:27;;;;;;;9.15;2.97;;;23.60;93.10;;;;;;5043728;28;20321;-27
2023/06/26 05:30:55;;;;;;;7.35;2.83;;;23.70;93.00;;;;;;5044503;28;20586;-27
2023/06/26 05:33:24;;;;;;;9.02;3.40;;;23.60;93.00;;;;;;5044500;28;20210;-26
2023/06/26 05:35:53;;;;;;;8.98;2.88;;;23.60;92.90;;;;;;5042949;28;20207;-26
2023/06/26 05:38:23;;;;;;;9.32;3.03;;;23.60;93.00;;;;;;5044231;28;20212;-26
2023/06/26 05:40:51;;;;;;;19.35;3.83;;;23.60;93.00;;;;;;5044457;28;20749;-26
2023/06/26 05:43:20;;;;;;;7.07;2.75;;;23.50;93.00;;;;;;5075689;28;20196;-26
2023/06/26 05:46:00;;;;;;;10.35;2.92;;;23.50;92.80;;;;;;5044480;28;20682;-27
2023/06/26 05:48:30;;;;;;;8.43;2.60;;;23.50;92.90;;;;;;5043871;28;20231;-26
2023/06/26 05:50:57;;;;;;;8.05;2.92;;;23.40;92.70;;;;;;5042439;28;20212;-26
2023/06/26 05:53:25;;;;;;;7.50;2.60;;;23.40;92.70;;;;;;5042213;28;20200;-27
2023/06/26 05:55:52;;;;;;;12.35;3.25;;;23.40;92.70;;;;;;5045526;28;20212;-26
2023/06/26 05:58:23;;;;;;;6.80;2.88;;;23.40;92.60;;;;;;5042940;28;20273;-26
2023/06/26 06:00:50;;;;;;;7.82;2.88;;;23.40;92.80;;;;;;5045337;28;20678;-27
2023/06/26 06:03:20;;;;;;;8.88;2.92;;;23.30;92.70;;;;;;5043580;28;20708;-27
2023/06/26 06:05:50;;;;;;;9.50;2.60;;;23.30;92.70;;;;;;5043372;28;20622;-27
2023/06/26 06:08:20;;;;;;;7.13;2.67;;;23.20;92.90;;;;;;5044837;28;20201;-27
2023/06/26 06:10:50;;;;;;;10.15;3.05;;;23.20;92.80;;;;;;5043467;28;20672;-27
2023/06/26 06:13:17;;;;;;;11.60;3.13;;;23.10;92.80;;;;;;5045113;28;20243;-27
2023/06/26 06:15:50;;;;;;;12.73;3.15;;;23.10;93.10;;;;;;5042956;28;20294;-27
2023/06/26 06:18:17;;;;;;;8.57;3.05;;;23.00;92.70;;;;;;5075872;28;20640;-27
2023/06/26 06:20:44;;;;;;;8.52;2.60;;;23.00;92.70;;;;;;5043386;28;20204;-27
2023/06/26 06:23:13;;;;;;;8.82;2.45;;;23.00;92.60;;;;;;5042904;28;20243;-30
2023/06/26 06:25:41;;;;;;;9.27;2.42;;;23.00;92.70;;;;;;5042755;28;20675;-27
2023/06/26 06:28:08;;;;;;;6.65;2.53;;;23.00;93.00;;;;;;5044390;28;20215;-27
2023/06/26 06:30:37;;;;;;;5.63;2.65;;;22.90;92.80;;;;;;5044040;28;20204;-27
2023/06/26 06:33:14;;;;;;;7.93;2.53;;;22.90;92.80;;;;;;5044357;28;20231;-27
2023/06/26 06:35:41;;;;;;;10.60;3.30;;;22.90;92.70;;;;;;5044531;28;20212;-28
2023/06/26 06:38:11;;;;;;;4.60;1.95;;;22.90;92.70;;;;;;5042568;28;20216;-27
2023/06/26 06:40:38;;;;;;;7.00;2.60;;;22.90;93.00;;;;;;5044473;28;20200;-27
2023/06/26 06:43:06;;;;;;;6.18;2.22;;;22.90;92.80;;;;;;5043845;28;20199;-27
2023/06/26 06:45:33;;;;;;;5.18;2.28;;;22.90;92.70;;;;;;5042359;28;20250;-27
2023/06/26 06:48:05;;;;;;;8.48;2.38;;;22.90;92.80;;;;;;5043952;28;20435;-27
2023/06/26 06:50:35;;;;;;;8.07;2.30;;;22.90;92.70;;;;;;5076122;28;20586;-27
2023/06/26 06:53:05;;;;;;;7.22;2.08;;;22.90;92.70;;;;;;5042230;28;20200;-27
2023/06/26 06:55:34;;;;;;;8.65;2.33;;;22.90;92.80;;;;;;5042442;28;20196;-27
2023/06/26 06:58:04;;;;;;;6.55;2.20;;;22.90;92.70;;;;;;5043909;28;20242;-27
2023/06/26 07:00:34;;;;;;;7.57;2.38;;;22.90;92.70;;;;;;5042959;28;20736;-27
2023/06/26 07:03:04;;;;;;;7.25;2.13;;;22.90;92.80;;;;;;5074486;28;20215;-26
2023/06/26 07:05:31;;;;;;;5.78;1.95;;;22.90;92.80;;;;;;5041741;28;20757;-26
2023/06/26 07:07:58;;;;;;;6.32;2.08;;;22.90;92.70;;;;;;5043825;28;20204;-26
2023/06/26 07:10:31;;;;;;;5.32;2.30;;;22.90;93.00;;;;;;5043123;28;20196;-28
2023/06/26 07:13:02;;;;;;;5.05;2.15;;;22.90;92.70;;;;;;5073562;28;20232;-27
2023/06/26 07:15:31;;;;;;;5.75;1.90;;;22.90;92.70;;;;;;5057450;28;20306;-27
2023/06/26 07:18:01;;;;;;;4.25;1.65;;;22.90;92.80;;;;;;5040974;28;20212;-27
2023/06/26 07:20:28;;;;;;;5.65;2.00;;;22.90;92.70;;;;;;5041355;28;20565;-31
2023/06/26 07:22:55;;;;;;;3.78;1.85;;;22.90;92.70;;;;;;5041559;28;20647;-31
2023/06/26 07:25:22;;;;;;;6.03;1.75;;;22.90;92.70;;;;;;5042233;28;20196;-30
2023/06/26 07:27:52;;;;;;;5.85;2.13;;;22.90;92.70;;;;;;5041157;28;20293;-30
2023/06/26 07:30:21;;;;;;;4.93;2.10;;;22.90;92.70;;;;;;5056610;28;20688;-30
2023/06/26 07:32:49;;;;;;;6.75;2.22;;;22.90;92.90;;;;;;5040587;28;20200;-30
2023/06/26 07:35:19;;;;;;;4.78;1.70;;;23.00;92.70;;;;;;5042419;28;20201;-30
2023/06/26 07:37:50;;;;;;;5.53;2.15;;;23.00;92.70;;;;;;5040860;28;20200;-31
2023/06/26 07:40:17;;;;;;;3.92;1.60;;;23.00;92.80;;;;;;5040579;28;20196;-31
2023/06/26 07:42:47;;;;;;;5.25;1.90;;;23.00;92.80;;;;;;5040470;28;20651;-31
2023/06/26 07:45:19;;;;;;;5.18;1.95;;;23.00;92.70;;;;;;5040676;28;20655;-33
2023/06/26 07:47:47;;;;;;;4.22;1.65;;;23.00;92.80;;;;;;5040643;28;20284;-37
2023/06/26 07:50:19;;;;;;;6.32;2.15;;;23.00;92.70;;;;;;5040693;28;20266;-31
2023/06/26 07:52:49;;;;;;;5.18;1.80;;;23.10;92.80;;;;;;5042669;28;20234;-31
2023/06/26 07:55:19;;;;;;;4.82;1.77;;;23.10;92.80;;;;;;5042225;28;20330;-31
2023/06/26 07:57:51;;;;;;;7.03;2.33;;;23.20;92.80;;;;;;5073052;28;20207;-30
2023/06/26 08:00:19;;;;;;;3.88;1.67;;;23.20;92.80;;;;;;5042021;28;20200;-30
2023/06/26 08:02:51;;;;;;;5.40;2.17;;;23.20;92.70;;;;;;5040973;28;20204;-30
2023/06/26 08:05:18;;;;;;;6.70;2.60;;;23.20;92.70;;;;;;5042496;28;20211;-30
2023/06/26 08:07:46;;;;;;;8.98;2.05;;;23.20;92.70;;;;;;5042316;28;20291;-31
2023/06/26 08:10:18;;;;;;;5.55;1.95;;;23.20;92.80;;;;;;5041898;28;20371;-30
2023/06/26 08:12:50;;;;;;;5.25;1.60;;;23.20;92.80;;;;;;5041864;28;20200;-30
2023/06/26 08:15:17;;;;;;;6.55;2.00;;;23.20;92.70;;;;;;5043351;28;20199;-30
2023/06/26 08:17:50;;;;;;;5.15;1.63;;;23.30;92.70;;;;;;5046045;28;20852;-30
2023/06/26 08:20:23;;;;;;;4.90;1.92;;;23.30;92.70;;;;;;5045723;28;20740;-30
2023/06/26 08:22:52;;;;;;;6.10;2.05;;;23.20;92.70;;;;;;5043843;28;20232;-30
2023/06/26 08:25:20;;;;;;;6.47;2.03;;;23.30;92.70;;;;;;5043661;28;20201;-30
2023/06/26 08:27:52;;;;;;;4.53;1.80;;;23.20;92.80;;;;;;5077141;28;20200;-30
2023/06/26 08:30:24;;;;;;;8.57;2.90;;;23.30;92.80;;;;;;5045768;28;20501;-30
2023/06/26 08:32:52;;;;;;;3.83;1.63;;;23.20;92.80;;;;;;5045049;28;20204;-30
2023/06/26 08:35:21;;;;;;;6.55;1.80;;;23.30;92.80;;;;;;5044259;28;20208;-30
2023/06/26 08:37:51;;;;;;;5.30;1.83;;;23.30;92.70;;;;;;5043961;28;20875;-30
2023/06/26 08:40:18;;;;;;;4.82;1.63;;;23.30;92.70;;;;;;5046256;28;20220;-31
2023/06/26 08:42:52;;;;;;;6.75;2.70;;;23.30;92.60;;;;;;5045543;28;20269;-30
2023/06/26 08:45:22;;;;;;;8.40;1.95;;;23.30;92.70;;;;;;5045361;28;20285;-30
2023/06/26 08:47:59;;;;;;;5.70;1.63;;;23.40;92.80;;;;;;5045957;28;20202;-30
2023/06/26 08:50:30;;;;;;;3.42;1.52;;;23.30;92.80;;;;;;5045306;28;20298;-30
2023/06/26 08:53:28;;;;;;;5.90;2.17;;;23.40;92.70;;;;;;5043999;28;20346;-30
2023/06/26 08:55:57;;;;;;;3.28;1.50;;;23.40;92.70;;;;;;5044185;28;20508;-30
2023/06/26 08:58:25;;;;;;;10.07;2.30;;;23.40;92.70;;;;;;5026994;28;20298;-30
2023/06/26 09:00:56;;;;;;;5.43;1.63;;;23.50;92.80;;;;;;5043518;28;20315;-30
2023/06/26 09:03:25;;;;;;;6.68;1.45;;;23.50;92.70;;;;;;5045247;28;20228;-30
2023/06/26 09:05:53;;;;;;;3.58;1.60;;;23.50;92.70;;;;;;5045137;28;20201;-30
2023/06/26 09:08:22;;;;;;;3.42;1.52;;;23.60;92.80;;;;;;5043622;28;20228;-30
2023/06/26 09:10:52;;;;;;;5.18;1.48;;;23.60;92.70;;;;;;5043265;28;20212;-30
2023/06/26 09:13:19;;;;;;;3.20;1.40;;;23.60;92.70;;;;;;5043480;28;20196;-26
2023/06/26 09:15:56;;;;;;;5.97;1.60;;;23.70;92.70;;;;;;5043205;28;20224;-27
2023/06/26 09:18:23;;;;;;;2.47;1.45;;;23.70;92.70;;;;;;5044549;28;20220;-27
2023/06/26 09:20:51;;;;;;;3.42;1.35;;;23.70;92.70;;;;;;5043226;28;20680;-26
2023/06/26 09:23:21;;;;;;;3.70;1.30;;;23.70;92.60;;;;;;5042926;28;20236;-27
2023/06/26 09:25:55;;;;;;;4.28;1.60;;;23.80;92.50;;;;;;5044431;28;20204;-26
2023/06/26 09:28:25;;;;;;;4.05;1.55;;;23.80;92.50;;;;;;5042526;28;20234;-26
2023/06/26 09:31:03;;;;;;;4.38;1.70;;;23.80;92.50;;;;;;5059387;28;20203;-27
2023/06/26 09:33:36;;;;;;;5.38;1.80;;;23.90;92.60;;;;;;5044975;28;20207;-27
2023/06/26 09:36:21;;;;;;;18.13;7.25;;;23.90;92.60;;;;;;5042450;28;20281;-27
2023/06/26 09:38:51;;;;;;;11.02;4.57;;;23.90;92.60;;;;;;5044219;28;20216;-28
2023/06/26 09:41:24;;;;;;;9.48;5.43;;;23.90;92.50;;;;;;5074867;28;20746;-27
2023/06/26 09:43:53;;;;;;;13.35;2.40;;;24.00;92.50;;;;;;5044278;28;20626;-27
2023/06/26 09:46:27;;;;;;;10.23;4.55;;;24.00;92.50;;;;;;5043998;28;20562;-27
2023/06/26 09:49:24;;;;;;;12.23;6.28;;;24.00;92.50;;;;;;5044409;28;20962;-27
2023/06/26 09:51:52;;;;;;;3.95;1.77;;;24.10;92.40;;;;;;5031522;28;20215;-26
2023/06/26 09:54:28;;;;;;;5.53;2.55;;;24.10;92.50;;;;;;5075049;28;20210;-27
2023/06/26 09:57:06;;;;;;;3.20;1.50;;;24.10;92.50;;;;;;5073822;28;20303;-27
2023/06/26 09:59:34;;;;;;;3.33;1.58;;;24.20;92.50;;;;;;5075893;28;20231;-27
2023/06/26 10:02:05;;;;;;;6.10;1.50;;;24.20;92.50;;;;;;5042033;28;20679;-26
2023/06/26 10:04:36;;;;;;;2.88;1.70;;;24.30;92.60;;;;;;5043745;28;20208;-26
2023/06/26 10:07:06;;;;;;;3.42;1.70;;;24.30;92.40;;;;;;5042311;28;20253;-27
2023/06/26 10:09:36;;;;;;;3.53;1.67;;;24.40;92.50;;;;;;5042088;28;20864;-27
2023/06/26 10:12:09;;;;;;;6.32;1.63;;;24.40;92.40;;;;;;5043415;28;20204;-27
2023/06/26 10:14:44;;;;;;;4.70;1.52;;;24.40;92.20;;;;;;5042111;28;20204;-27
2023/06/26 10:17:18;;;;;;;3.70;1.40;;;24.40;92.10;;;;;;5043864;28;20203;-27
2023/06/26 10:19:51;;;;;;;2.83;1.33;;;24.50;92.30;;;;;;5043615;28;20258;-27
2023/06/26 10:22:24;;;;;;;4.60;1.42;;;24.50;92.30;;;;;;5041230;28;20266;-27
2023/06/26 10:24:57;;;;;;;4.90;1.20;;;24.50;91.90;;;;;;5043340;28;20262;-27
2023/06/26 10:27:37;;;;;;;2.80;1.10;;;24.40;91.80;;;;;;5058105;28;20193;-27
2023/06/26 10:30:14;;;;;;;4.18;1.23;;;24.40;91.90;;;;;;5043135;28;20216;-27
2023/06/26 10:32:46;;;;;;;2.97;1.30;;;24.40;91.70;;;;;;5041811;28;20618;-27
2023/06/26 10:35:18;;;;;;;6.32;1.60;;;24.30;91.50;;;;;;5043321;28;20253;-27
2023/06/26 10:37:50;;;;;;;5.03;1.20;;;24.40;91.60;;;;;;5043274;28;20200;-26
2023/06/26 10:40:48;;;;;;;2.85;1.25;;;24.40;91.50;;;;;;5043230;28;20575;-27
2023/06/26 10:43:16;;;;;;;3.00;1.10;;;24.50;91.60;;;;;;5041475;28;20295;-27
2023/06/26 10:45:52;;;;;;;3.15;0.98;;;24.50;91.60;;;;;;5073805;28;20287;-26
2023/06/26 10:48:20;;;;;;;2.47;1.10;;;24.50;91.30;;;;;;5073564;28;20196;-27
2023/06/26 10:50:50;;;;;;;2.83;1.48;;;24.50;91.40;;;;;;5041401;28;20255;-27
2023/06/26 10:53:22;;;;;;;4.90;1.20;;;24.50;91.40;;;;;;5042948;28;20706;-27
2023/06/26 10:56:02;;;;;;;3.97;1.20;;;24.50;91.30;;;;;;5042691;28;20196;-26
2023/06/26 10:58:41;;;;;;;2.60;1.60;;;24.50;91.10;;;;;;5042592;28;20247;-27
2023/06/26 11:01:12;;;;;;;2.65;1.30;;;24.50;91.20;;;;;;5041065;28;20192;-27
2023/06/26 11:03:45;;;;;;;4.57;1.27;;;24.50;91.20;;;;;;5042625;28;20199;-27
2023/06/26 11:06:21;;;;;;;2.47;1.13;;;24.50;91.00;;;;;;5057441;28;20283;-27
2023/06/26 11:09:12;;;;;;;4.00;1.42;;;24.60;91.10;;;;;;5073093;28;20208;-27
2023/06/26 11:11:52;;;;;;;2.78;1.40;;;24.60;91.10;;;;;;5040926;28;20230;-27
2023/06/26 11:14:21;;;;;;;2.67;1.40;;;24.60;91.00;;;;;;5042547;28;20587;-27
2023/06/26 11:16:51;;;;;;;4.30;1.35;;;24.70;91.20;;;;;;5040912;28;20196;-27
2023/06/26 11:19:20;;;;;;;3.50;1.35;;;24.70;91.10;;;;;;5041253;28;20314;-27
2023/06/26 11:21:47;;;;;;;6.30;1.42;;;24.70;91.00;;;;;;5042070;28;20249;-27
2023/06/26 11:24:16;;;;;;;4.00;1.40;;;24.80;91.20;;;;;;5042603;28;20266;-27
2023/06/26 11:26:46;;;;;;;6.38;1.70;;;24.80;91.40;;;;;;5041995;28;20227;-26
2023/06/26 11:29:14;;;;;;;2.90;1.52;;;24.80;91.00;;;;;;5040833;28;20242;-26
2023/06/26 11:31:45;;;;;;;4.53;1.35;;;24.80;91.10;;;;;;5073551;28;20742;-27
2023/06/26 11:34:16;;;;;;;2.63;1.30;;;24.90;91.10;;;;;;5042518;28;20223;-27
2023/06/26 11:36:46;;;;;;;3.45;1.27;;;24.90;91.00;;;;;;5044186;28;20207;-26
2023/06/26 11:39:18;;;;;;;3.28;1.45;;;24.90;91.00;;;;;;5044325;28;20678;-27
2023/06/26 11:41:47;;;;;;;3.78;1.35;;;25.00;91.00;;;;;;5041546;28;20688;-28
2023/06/26 11:44:19;;;;;;;3.92;1.48;;;25.00;90.90;;;;;;5041296;28;20275;-27
2023/06/26 11:46:49;;;;;;;3.80;1.27;;;25.00;90.90;;;;;;5042326;28;20204;-27
2023/06/26 11:49:17;;;;;;;4.93;1.50;;;25.00;90.90;;;;;;5039912;28;20728;-27
2023/06/26 11:51:48;;;;;;;5.00;1.80;;;25.00;90.70;;;;;;5072922;28;20200;-27
2023/06/26 11:54:29;;;;;;;3.05;1.30;;;25.00;90.60;;;;;;5042401;28;20207;-27
2023/06/26 11:56:58;;;;;;;5.22;1.30;;;25.00;90.50;;;;;;5073889;28;20706;-27
2023/06/26 11:59:36;;;;;;;2.45;1.10;;;25.00;90.00;;;;;;5041706;28;20263;-27
2023/06/26 12:02:11;;;;;;;4.13;1.45;;;25.00;90.50;;;;;;5042402;28;20215;-27
2023/06/26 12:04:41;;;;;;;3.58;1.50;;;25.10;90.50;;;;;;5042163;28;20669;-27
2023/06/26 12:07:10;;;;;;;4.45;1.83;;;25.10;90.60;;;;;;5042145;28;20238;-27
2023/06/26 12:09:45;;;;;;;2.13;1.10;;;25.20;90.50;;;;;;5040429;28;20242;-27
2023/06/26 12:12:20;;;;;;;2.40;1.27;;;25.20;90.40;;;;;;5041353;28;20253;-27
2023/06/26 12:14:47;;;;;;;2.83;1.52;;;25.20;90.40;;;;;;5042448;28;20579;-27
2023/06/26 12:17:15;;;;;;;3.63;1.60;;;25.20;90.40;;;;;;5041494;28;20208;-27
2023/06/26 12:19:48;;;;;;;3.95;1.60;;;25.20;90.50;;;;;;5073173;28;20307;-26
2023/06/26 12:22:17;;;;;;;3.97;1.40;;;25.30;90.20;;;;;;5040043;28;20235;-27
2023/06/26 12:24:50;;;;;;;2.67;1.50;;;25.30;90.30;;;;;;5042269;28;20656;-29
2023/06/26 12:27:18;;;;;;;5.72;1.90;;;25.30;90.00;;;;;;5041741;28;20588;-27
2023/06/26 12:29:55;;;;;;;3.72;1.30;;;25.30;90.20;;;;;;5041497;28;20208;-27
2023/06/26 12:32:25;;;;;;;5.15;1.80;;;25.30;90.00;;;;;;5041232;28;20287;-27
2023/06/26 12:34:59;;;;;;;5.10;1.55;;;25.30;90.00;;;;;;5042321;28;20295;-27
2023/06/26 12:37:27;;;;;;;3.15;1.58;;;25.30;90.30;;;;;;5073640;28;20212;-27
2023/06/26 12:40:05;;;;;;;2.33;1.30;;;25.30;90.00;;;;;;5056484;28;20346;-27
2023/06/26 12:42:35;;;;;;;1.55;1.23;;;25.30;90.10;;;;;;5041542;28;20204;-27
2023/06/26 12:45:11;;;;;;;3.88;1.60;;;25.40;90.10;;;;;;5056508;28;20201;-27
2023/06/26 12:48:08;;;;;;;4.15;1.30;;;25.30;89.20;;;;;;5042221;28;20320;-28
2023/06/26 12:50:47;;;;;;;2.63;1.20;;;25.40;89.40;;;;;;5041905;28;20793;-27
2023/06/26 12:53:20;;;;;;;2.42;1.60;;;25.40;89.40;;;;;;5041527;28;20669;-27
2023/06/26 12:55:50;;;;;;;3.58;1.45;;;25.40;89.30;;;;;;5040387;28;20718;-27
2023/06/26 12:58:17;;;;;;;3.83;1.45;;;25.40;89.80;;;;;;5041786;28;20208;-27
2023/06/26 13:00:50;;;;;;;3.13;1.35;;;25.40;89.50;;;;;;5041848;28;20232;-27
2023/06/26 13:03:20;;;;;;;2.20;1.23;;;25.40;89.60;;;;;;5042955;28;20531;-26